Time;durP1;ratioP1;P1;durP2;ratioP2;P2;SDS_P1;SDS_P2;PMS_P1;PMS_P2;Temp;Humidity;BMP_temperature;BMP_pressure;BME280_temperature;BME280_humidity;BME280_pressure;Samples;Min_cycle;Max_cycle;Signal;HPM_P1;HPM_P2
2023/03/03 11:30:23;;;;;;;5.10;4.60;;;20.70;30.90;;;;;;5088340;27;1177567;-45
2023/03/03 11:33:11;;;;;;;5.30;3.43;;;22.30;29.10;;;;;;5113368;28;20298;-49
2023/03/03 11:36:02;;;;;;;4.87;4.07;;;22.10;29.10;;;;;;5101395;28;20417;-48
2023/03/03 11:39:07;;;;;;;6.43;4.53;;;22.00;29.10;;;;;;5061642;28;20410;-48
2023/03/03 11:42:10;;;;;;;4.60;4.20;;;21.90;29.10;;;;;;5093254;28;20389;-49
2023/03/03 11:44:48;;;;;;;4.50;4.10;;;21.80;29.20;;;;;;5041418;28;20478;-48
2023/03/03 11:47:26;;;;;;;6.23;3.70;;;21.80;29.30;;;;;;5093235;28;20449;-48
2023/03/03 11:50:08;;;;;;;4.40;4.00;;;21.70;29.30;;;;;;5093579;28;20451;-49
2023/03/03 11:52:49;;;;;;;3.47;3.17;;;21.70;29.40;;;;;;5093513;28;20832;-49
2023/03/03 11:55:32;;;;;;;3.80;3.50;;;21.60;29.30;;;;;;5093171;28;20428;-48
2023/03/03 11:58:21;;;;;;;4.13;3.73;;;21.60;29.30;;;;;;5092765;28;20860;-38
2023/03/03 12:00:53;;;;;;;4.67;4.27;;;21.60;29.30;;;;;;5093321;28;20866;-45
2023/03/03 12:03:59;;;;;;;6.80;3.80;;;21.50;29.30;;;;;;5088899;28;20446;-50
2023/03/03 12:06:46;;;;;;;3.97;3.57;;;21.50;29.40;;;;;;5032810;28;20452;-39
2023/03/03 12:09:29;;;;;;;19.20;15.70;;;21.70;29.80;;;;;;5057989;28;20459;-74
2023/03/03 12:12:04;;;;;;;40.23;31.40;;;21.00;26.30;;;;;;5048435;28;20727;-76
2023/03/03 12:15:14;;;;;;;19.33;14.40;;;17.80;28.20;;;;;;4893659;28;3830890;-75
2023/03/03 12:18:20;;;;;;;39.77;29.87;;;14.20;32.60;;;;;;5037256;28;20198;-72
2023/03/03 12:21:37;;;;;;;22.30;14.90;;;11.50;37.80;;;;;;5044618;28;20795;-77
2023/03/03 12:24:22;;;;;;;41.17;27.10;;;10.30;38.70;;;;;;4951691;28;20457;-75
2023/03/03 12:27:08;;;;;;;30.03;19.83;;;9.20;43.80;;;;;;4957822;28;20423;-76
2023/03/03 12:29:56;;;;;;;28.43;19.47;;;8.30;45.80;;;;;;4980330;28;20607;-74
2023/03/03 12:33:00;;;;;;;29.80;21.85;;;8.10;46.10;;;;;;4953811;28;20426;-74
2023/03/03 12:35:43;;;;;;;31.63;20.10;;;8.00;46.40;;;;;;4962295;28;20250;-76
2023/03/03 12:38:23;;;;;;;38.13;24.20;;;7.70;47.80;;;;;;5015111;28;20773;-73
2023/03/03 12:41:07;;;;;;;38.13;25.80;;;7.50;49.50;;;;;;4978120;28;20416;-74
2023/03/03 12:43:33;;;;;;;33.17;20.30;;;7.30;49.30;;;;;;4992653;28;20416;-75
2023/03/03 12:46:19;;;;;;;37.50;22.93;;;7.30;49.10;;;;;;4988633;28;20590;-75
2023/03/03 12:48:46;;;;;;;35.93;20.63;;;7.20;49.30;;;;;;4990674;28;20188;-74
2023/03/03 12:51:35;;;;;;;40.30;23.03;;;6.80;50.00;;;;;;4957570;28;20470;-74
2023/03/03 12:54:27;;;;;;;38.23;22.80;;;6.70;50.80;;;;;;4977845;28;20424;-76
2023/03/03 12:57:07;;;;;;;33.03;18.53;;;6.60;51.20;;;;;;4978817;28;20426;-75
2023/03/03 12:59:51;;;;;;;29.17;17.90;;;6.80;51.30;;;;;;5006618;28;20475;-73
2023/03/03 13:02:33;;;;;;;29.30;17.47;;;6.90;50.80;;;;;;4998454;28;20407;-78
2023/03/03 13:05:09;;;;;;;34.60;19.67;;;6.90;50.90;;;;;;4994728;28;20467;-76
2023/03/03 13:07:47;;;;;;;34.33;21.33;;;6.90;51.20;;;;;;4993522;28;20420;-77
2023/03/03 13:10:22;;;;;;;34.43;18.80;;;6.90;51.20;;;;;;5004635;28;20415;-74
2023/03/03 13:13:17;;;;;;;34.57;19.70;;;6.80;51.50;;;;;;4991789;28;20415;-75
2023/03/03 13:15:54;;;;;;;34.07;20.07;;;6.80;51.90;;;;;;4992723;28;20492;-75
2023/03/03 13:18:41;;;;;;;34.03;19.70;;;6.70;52.00;;;;;;4972382;28;20522;-73
2023/03/03 13:21:14;;;;;;;37.67;21.97;;;6.50;52.40;;;;;;4990677;28;20416;-78
2023/03/03 13:24:06;;;;;;;36.00;19.23;;;6.40;52.50;;;;;;4994111;28;20427;-75
2023/03/03 13:27:06;;;;;;;35.40;18.97;;;6.20;52.60;;;;;;5001758;28;20463;-75
2023/03/03 13:29:40;;;;;;;35.30;19.40;;;6.40;52.30;;;;;;4969599;28;20474;-77
2023/03/03 13:32:17;;;;;;;37.00;21.10;;;6.50;52.80;;;;;;4980073;28;20872;-74
2023/03/03 13:34:49;;;;;;;38.40;21.50;;;6.60;52.50;;;;;;4994476;28;20499;-76
2023/03/03 13:37:27;;;;;;;36.70;19.43;;;6.70;51.60;;;;;;4997844;28;20422;-73
2023/03/03 13:40:04;;;;;;;32.80;19.83;;;6.70;51.70;;;;;;5029803;28;20495;-74
2023/03/03 13:42:40;;;;;;;25.27;15.27;;;6.70;51.90;;;;;;4997097;28;20425;-76
2023/03/03 13:45:18;;;;;;;34.53;19.60;;;6.70;52.00;;;;;;5012993;28;20453;-72
2023/03/03 13:47:56;;;;;;;39.90;22.80;;;6.70;52.20;;;;;;5012292;28;20477;-75
2023/03/03 13:50:38;;;;;;;29.67;17.27;;;6.60;52.10;;;;;;5014744;28;20437;-75
2023/03/03 13:53:26;;;;;;;46.50;23.20;;;6.50;52.40;;;;;;5026125;28;20876;-71
2023/03/03 13:56:08;;;;;;;52.33;28.60;;;6.60;52.60;;;;;;5028477;28;20440;-74
2023/03/03 13:58:49;;;;;;;52.23;27.57;;;6.50;52.90;;;;;;5001638;28;20469;-75
2023/03/03 14:01:41;;;;;;;49.80;25.63;;;6.20;53.70;;;;;;5027216;28;20487;-74
2023/03/03 14:04:49;;;;;;;44.40;25.67;;;6.00;53.70;;;;;;5025322;28;20423;-71
2023/03/03 14:07:30;;;;;;;44.13;24.57;;;5.90;54.00;;;;;;4993147;28;20403;-73
2023/03/03 14:09:59;;;;;;;45.73;23.03;;;5.70;53.90;;;;;;5032326;28;20421;-71
2023/03/03 14:13:00;;;;;;;47.30;25.03;;;5.60;54.30;;;;;;5014378;28;20414;-73
2023/03/03 14:15:32;;;;;;;49.07;25.10;;;5.50;54.60;;;;;;4978613;28;20449;-73
2023/03/03 14:18:16;;;;;;;48.93;25.40;;;5.60;54.80;;;;;;4994779;28;20399;-76
2023/03/03 14:20:47;;;;;;;38.30;22.23;;;5.60;54.60;;;;;;5008873;28;20414;-73
2023/03/03 14:23:26;;;;;;;45.20;23.57;;;5.40;54.80;;;;;;5009239;28;20434;-75
2023/03/03 14:26:12;;;;;;;39.90;22.83;;;5.30;55.10;;;;;;5020544;28;20513;-73
2023/03/03 14:28:44;;;;;;;46.13;23.27;;;5.40;55.30;;;;;;4987158;28;20471;-75
2023/03/03 14:31:17;;;;;;;48.17;24.60;;;5.30;55.70;;;;;;5012009;28;20482;-73
2023/03/03 14:58:47;;;;;;;62.90;27.07;;;4.90;57.50;;;;;;5297110;23;20489;-78
2023/03/03 15:04:47;;;;;;;45.93;22.93;;;4.70;58.30;;;;;;4995554;23;20510;-76
2023/03/03 15:07:28;;;;;;;55.60;26.73;;;4.80;57.90;;;;;;4905700;29;20462;-74
2023/03/03 15:09:53;;;;;;;58.30;27.10;;;4.80;57.80;;;;;;4910159;29;20507;-77
2023/03/03 15:12:24;;;;;;;45.93;23.00;;;4.80;57.90;;;;;;4882923;29;20407;-74
2023/03/03 15:15:01;;;;;;;63.10;28.00;;;4.60;58.20;;;;;;4919659;29;20230;-75
2023/03/03 15:17:35;;;;;;;48.47;23.27;;;4.70;58.60;;;;;;4882589;29;20404;-75
2023/03/03 15:20:31;;;;;;;50.67;23.80;;;4.60;58.70;;;;;;4904140;29;20463;-76
2023/03/03 15:23:06;;;;;;;52.13;23.23;;;4.60;58.70;;;;;;4935854;29;20434;-77
2023/03/03 15:25:51;;;;;;;53.23;25.90;;;4.60;59.10;;;;;;4900698;29;20451;-76
2023/03/03 15:28:28;;;;;;;47.70;23.40;;;4.50;59.00;;;;;;4900926;29;20411;-76
2023/03/03 15:31:31;;;;;;;45.73;23.83;;;4.50;59.00;;;;;;4920360;29;20431;-77
2023/03/03 15:34:23;;;;;;;51.07;23.73;;;4.50;59.30;;;;;;4907607;29;20725;-74
2023/03/03 15:37:28;;;;;;;54.93;25.43;;;4.50;59.20;;;;;;4901824;29;20462;-75
2023/03/03 15:40:31;;;;;;;49.40;24.17;;;4.40;59.40;;;;;;4905161;29;20467;-74
2023/03/03 15:43:19;;;;;;;43.33;21.40;;;4.40;59.60;;;;;;4899510;29;20406;-75
2023/03/03 15:45:52;;;;;;;43.63;22.30;;;4.40;59.50;;;;;;4897926;29;20454;-77
2023/03/03 15:48:33;;;;;;;43.90;20.17;;;4.40;59.60;;;;;;4913289;29;20423;-75
2023/03/03 15:51:25;;;;;;;46.60;23.80;;;4.40;59.60;;;;;;4911863;29;20483;-77
2023/03/03 15:54:05;;;;;;;46.60;23.57;;;4.30;59.60;;;;;;4904376;29;20414;-73
2023/03/03 15:56:54;;;;;;;47.10;22.73;;;4.30;59.70;;;;;;4907759;29;20451;-76
2023/03/03 15:59:29;;;;;;;51.10;21.73;;;4.20;59.90;;;;;;4900637;29;20477;-73
2023/03/03 16:02:14;;;;;;;42.60;22.57;;;4.10;60.60;;;;;;4912283;29;20440;-74
2023/03/03 16:04:56;;;;;;;49.60;23.70;;;4.00;61.00;;;;;;4934724;29;20498;-77
2023/03/03 16:07:44;;;;;;;45.13;20.97;;;4.10;61.40;;;;;;4917168;29;20419;-75
2023/03/03 16:10:48;;;;;;;43.13;22.10;;;4.10;61.30;;;;;;4935951;29;20451;-76
2023/03/03 16:13:52;;;;;;;44.87;22.80;;;4.00;61.60;;;;;;4935719;29;20932;-77
2023/03/03 16:16:36;;;;;;;37.37;17.20;;;3.90;62.10;;;;;;4903901;29;20438;-75
2023/03/03 16:19:40;;;;;;;50.63;21.63;;;3.80;62.60;;;;;;4905305;29;20450;-73
2023/03/03 16:22:27;;;;;;;45.05;24.77;;;3.70;63.20;;;;;;4921099;29;20715;-78
2023/03/03 16:25:03;;;;;;;48.70;21.20;;;3.70;63.20;;;;;;4906258;29;20434;-79
2023/03/03 16:27:49;;;;;;;49.97;19.93;;;3.70;63.60;;;;;;4913873;29;20429;-75
2023/03/03 16:30:18;;;;;;;35.07;16.70;;;4.10;69.60;;;;;;4890916;29;20431;-74
2023/03/03 16:32:55;;;;;;;34.13;18.50;;;4.40;63.00;;;;;;4920472;29;20403;-76
2023/03/03 16:35:30;;;;;;;35.93;17.03;;;4.30;61.50;;;;;;4901581;29;20442;-74
2023/03/03 16:38:17;;;;;;;37.77;17.93;;;4.10;61.10;;;;;;4911890;29;20429;-72
2023/03/03 16:40:55;;;;;;;35.10;17.50;;;4.00;62.30;;;;;;4919721;29;20487;-75
2023/03/03 16:43:35;;;;;;;32.03;14.73;;;3.90;62.90;;;;;;4917880;29;20419;-72
2023/03/03 16:46:15;;;;;;;34.73;16.50;;;3.70;63.50;;;;;;4900261;29;20485;-75
2023/03/03 16:49:00;;;;;;;38.50;17.40;;;3.50;63.90;;;;;;4903449;29;20840;-74
2023/03/03 16:51:31;;;;;;;33.00;13.97;;;3.40;64.40;;;;;;4918107;29;20460;-75
2023/03/03 16:54:22;;;;;;;33.27;16.97;;;3.30;65.20;;;;;;4902845;29;20444;-72
2023/03/03 16:56:57;;;;;;;44.87;19.13;;;3.20;65.60;;;;;;4918988;29;20423;-74
2023/03/03 17:00:02;;;;;;;31.43;14.90;;;3.20;66.90;;;;;;4904544;29;20466;-75
2023/03/03 17:03:13;;;;;;;29.87;13.17;;;3.10;66.80;;;;;;4919149;29;20411;-75
2023/03/03 17:05:45;;;;;;;37.57;16.43;;;3.10;67.30;;;;;;4886204;29;20454;-76
2023/03/03 17:08:21;;;;;;;37.90;17.50;;;3.10;68.10;;;;;;4921439;29;20427;-73
2023/03/03 17:11:13;;;;;;;33.13;15.00;;;3.00;69.00;;;;;;4916990;29;20439;-76
2023/03/03 17:14:05;;;;;;;31.80;15.10;;;3.00;69.10;;;;;;4902400;29;20431;-75
2023/03/03 17:16:36;;;;;;;34.30;15.90;;;2.90;69.80;;;;;;4936887;29;20462;-76
2023/03/03 17:19:13;;;;;;;28.20;15.80;;;2.90;70.90;;;;;;4920055;29;20450;-72
2023/03/03 17:22:03;;;;;;;37.20;18.87;;;2.80;71.50;;;;;;4933842;29;20402;-72
2023/03/03 17:24:40;;;;;;;46.43;21.40;;;2.80;72.70;;;;;;4888537;29;20415;-75
2023/03/03 17:27:37;;;;;;;37.27;20.00;;;2.80;74.10;;;;;;4917825;29;20441;-71
2023/03/03 17:30:25;;;;;;;50.37;24.13;;;2.70;75.20;;;;;;4904301;29;20466;-76
2023/03/03 17:33:00;;;;;;;54.23;26.10;;;2.70;76.60;;;;;;4901894;29;20495;-75
2023/03/03 17:35:45;;;;;;;48.87;24.03;;;2.70;77.80;;;;;;4917435;29;20469;-74
2023/03/03 17:38:35;;;;;;;66.50;30.67;;;2.60;79.10;;;;;;4919607;29;20417;-73
2023/03/03 17:41:16;;;;;;;60.33;30.77;;;2.50;80.70;;;;;;4906036;29;20447;-75
2023/03/03 17:43:53;;;;;;;68.27;33.07;;;2.40;82.30;;;;;;4936551;29;20430;-73
2023/03/03 17:46:48;;;;;;;70.63;33.37;;;2.40;84.90;;;;;;4920627;29;20454;-73
2023/03/03 17:49:32;;;;;;;58.37;28.50;;;2.40;85.50;;;;;;4938530;29;20422;-74
2023/03/03 17:52:23;;;;;;;53.17;26.90;;;2.30;86.50;;;;;;4936385;29;20782;-75
2023/03/03 17:55:08;;;;;;;59.17;28.47;;;2.30;87.50;;;;;;4921161;29;20498;-73
2023/03/03 17:58:12;;;;;;;69.83;32.13;;;2.20;88.80;;;;;;4938757;29;20425;-75
2023/03/03 18:01:07;;;;;;;63.47;31.43;;;2.20;90.10;;;;;;4916662;29;20403;-75
2023/03/03 18:03:36;;;;;;;66.93;31.00;;;2.10;90.90;;;;;;4906466;29;20492;-74
2023/03/03 18:06:05;;;;;;;80.73;40.10;;;2.10;91.50;;;;;;4920824;29;20439;-75
2023/03/03 18:08:41;;;;;;;59.37;31.40;;;2.10;92.20;;;;;;4905314;29;20427;-74
2023/03/03 18:11:23;;;;;;;68.27;29.77;;;2.00;92.30;;;;;;4921538;29;20422;-75
2023/03/03 18:13:52;;;;;;;66.47;31.63;;;2.00;92.70;;;;;;4914439;29;20431;-75
2023/03/03 18:16:51;;;;;;;58.70;29.83;;;2.00;93.40;;;;;;4916027;29;20440;-74
2023/03/03 18:19:48;;;;;;;64.20;28.73;;;1.90;93.60;;;;;;4904011;29;20471;-75
2023/03/03 18:22:29;;;;;;;49.60;26.90;;;1.90;93.90;;;;;;4904257;29;20423;-74
2023/03/03 18:25:10;;;;;;;56.50;27.53;;;1.90;94.20;;;;;;4903097;29;20451;-75
2023/03/03 18:27:43;;;;;;;66.37;32.93;;;1.80;94.60;;;;;;4899793;29;20435;-75
2023/03/03 18:30:23;;;;;;;62.77;30.50;;;1.80;95.30;;;;;;4937909;29;20418;-74
2023/03/03 18:32:55;;;;;;;62.23;31.70;;;1.80;95.60;;;;;;4906433;29;20509;-76
2023/03/03 18:35:25;;;;;;;65.13;33.23;;;1.70;95.90;;;;;;4920581;29;20463;-76
2023/03/03 18:37:51;;;;;;;73.80;34.87;;;1.70;95.90;;;;;;4917520;29;20492;-74
2023/03/03 18:40:33;;;;;;;66.00;34.00;;;1.70;96.50;;;;;;4874417;29;20459;-75
2023/03/03 18:43:38;;;;;;;65.50;33.90;;;1.60;96.80;;;;;;4921564;29;20395;-77
2023/03/03 18:46:04;;;;;;;75.90;35.70;;;1.60;97.20;;;;;;4906183;29;20402;-73
2023/03/03 18:48:50;;;;;;;92.20;40.40;;;1.60;97.60;;;;;;4919430;29;20408;-76
2023/03/03 18:51:38;;;;;;;79.90;36.57;;;1.60;97.90;;;;;;4910286;29;20466;-76
2023/03/03 18:54:17;;;;;;;107.13;43.90;;;1.60;98.10;;;;;;4909152;29;20426;-77
2023/03/03 18:57:12;;;;;;;88.17;40.17;;;1.60;98.40;;;;;;4940854;29;20430;-75
2023/03/03 18:59:40;;;;;;;74.67;37.50;;;1.60;98.80;;;;;;4923546;29;20506;-75
2023/03/03 19:02:11;;;;;;;66.40;32.40;;;1.60;98.50;;;;;;4919147;29;20506;-75
2023/03/03 19:04:41;;;;;;;79.03;37.90;;;1.50;98.50;;;;;;4884855;29;20479;-75
2023/03/03 19:07:46;;;;;;;74.97;32.87;;;1.50;99.00;;;;;;4903190;29;20422;-77
2023/03/03 19:10:21;;;;;;;70.67;33.80;;;1.40;99.00;;;;;;4905246;29;20424;-75
2023/03/03 19:12:59;;;;;;;70.03;31.93;;;1.40;99.30;;;;;;4905521;29;20443;-76
2023/03/03 19:15:29;;;;;;;74.70;33.97;;;1.40;99.60;;;;;;4905006;29;20443;-75
2023/03/03 19:18:19;;;;;;;72.93;34.23;;;1.30;99.80;;;;;;4902808;29;20419;-77
2023/03/03 19:20:49;;;;;;;65.57;30.27;;;1.20;99.90;;;;;;4911978;29;20471;-77
2023/03/03 19:23:19;;;;;;;60.07;29.03;;;1.10;99.90;;;;;;4893947;29;20429;-75
2023/03/03 19:25:47;;;;;;;65.53;32.20;;;1.10;99.90;;;;;;4923160;29;20461;-76
2023/03/03 19:28:21;;;;;;;63.87;29.73;;;1.10;99.90;;;;;;4905848;29;20738;-76
2023/03/03 19:30:57;;;;;;;72.13;31.07;;;1.10;99.90;;;;;;4904631;29;20403;-74
2023/03/03 19:33:41;;;;;;;51.23;27.03;;;1.00;99.90;;;;;;4888604;29;20435;-76
2023/03/03 19:36:35;;;;;;;48.77;23.67;;;1.00;99.90;;;;;;4901279;23;20473;-76
2023/03/03 19:39:11;;;;;;;99.03;44.63;;;0.90;99.90;;;;;;4883341;29;20473;-75
2023/03/03 19:42:03;;;;;;;82.30;33.93;;;0.90;99.90;;;;;;4901004;29;20424;-76
2023/03/03 19:45:00;;;;;;;68.60;28.97;;;0.80;99.90;;;;;;4877446;29;20455;-75
2023/03/03 19:47:49;;;;;;;82.93;35.50;;;0.80;99.90;;;;;;4922923;29;20419;-76
2023/03/03 19:50:23;;;;;;;78.33;34.60;;;0.70;99.90;;;;;;4894233;29;20423;-76
2023/03/03 19:53:00;;;;;;;70.23;32.60;;;0.80;99.90;;;;;;4901221;29;20425;-74
2023/03/03 19:56:03;;;;;;;53.83;26.20;;;0.80;99.90;;;;;;4904250;29;20435;-73
2023/03/03 19:58:54;;;;;;;52.90;26.13;;;0.90;99.90;;;;;;4904056;29;20455;-76
2023/03/03 20:01:52;;;;;;;49.13;23.70;;;0.90;99.90;;;;;;4888676;29;20580;-74
2023/03/03 20:04:31;;;;;;;108.87;45.20;;;0.90;99.90;;;;;;4875171;29;20876;-75
2023/03/03 20:07:16;;;;;;;76.57;35.00;;;1.00;99.90;;;;;;4879423;29;20515;-72
2023/03/03 20:10:05;;;;;;;57.27;28.90;;;1.00;99.90;;;;;;4899564;29;20480;-74
2023/03/03 20:12:40;;;;;;;55.47;26.37;;;0.90;99.90;;;;;;4897607;29;20452;-76
2023/03/03 20:15:19;;;;;;;69.70;33.50;;;0.90;99.90;;;;;;4915069;29;20450;-75
2023/03/03 20:17:54;;;;;;;69.63;30.90;;;0.90;99.90;;;;;;4924220;29;20411;-75
2023/03/03 20:20:22;;;;;;;71.10;32.63;;;0.90;99.90;;;;;;4908083;29;20465;-75
2023/03/03 20:22:53;;;;;;;79.27;37.20;;;1.10;99.90;;;;;;4904671;29;20420;-74
2023/03/03 20:25:58;;;;;;;66.17;31.40;;;1.00;99.90;;;;;;4904758;29;20471;-74
2023/03/03 20:28:50;;;;;;;72.17;33.00;;;1.00;99.90;;;;;;4903677;29;20403;-76
2023/03/03 20:31:42;;;;;;;72.70;33.70;;;1.10;99.90;;;;;;4928289;29;20416;-74
2023/03/03 20:34:32;;;;;;;62.60;27.87;;;1.10;99.90;;;;;;4917649;29;20444;-74
2023/03/03 20:37:33;;;;;;;69.70;32.47;;;1.20;99.90;;;;;;4920281;29;20423;-73
2023/03/03 20:40:12;;;;;;;52.37;26.67;;;1.30;99.90;;;;;;4888934;29;20474;-75
2023/03/03 20:42:59;;;;;;;72.13;35.63;;;1.40;99.90;;;;;;4903953;29;20468;-74
2023/03/03 20:45:37;;;;;;;74.77;37.87;;;1.40;99.90;;;;;;4898110;29;20530;-73
2023/03/03 20:48:41;;;;;;;76.10;34.30;;;1.50;99.90;;;;;;4901002;29;20420;-76
2023/03/03 20:51:12;;;;;;;64.90;29.73;;;1.60;99.90;;;;;;4901511;29;20522;-75
2023/03/03 20:54:02;;;;;;;69.90;33.40;;;1.60;99.90;;;;;;4871258;29;20435;-74
2023/03/03 20:56:38;;;;;;;72.37;34.53;;;1.70;99.90;;;;;;4884144;29;20436;-75
2023/03/03 20:59:12;;;;;;;70.47;35.77;;;1.80;99.90;;;;;;4901594;29;20432;-75
2023/03/03 21:01:45;;;;;;;62.30;30.27;;;1.90;99.90;;;;;;4901268;29;20421;-74
2023/03/03 21:04:26;;;;;;;58.77;26.40;;;1.90;99.90;;;;;;4903011;29;20428;-75
2023/03/03 21:06:53;;;;;;;54.67;25.70;;;1.90;99.90;;;;;;4919254;29;20440;-77
2023/03/03 21:09:35;;;;;;;63.33;29.13;;;1.90;99.80;;;;;;4898990;29;20443;-73
2023/03/03 21:12:09;;;;;;;47.10;24.07;;;2.00;99.70;;;;;;4865568;29;20418;-75
2023/03/03 21:14:36;;;;;;;53.97;24.90;;;2.00;99.60;;;;;;4915820;29;20463;-74
2023/03/03 21:17:26;;;;;;;53.30;24.60;;;2.00;99.50;;;;;;4899752;29;20445;-72
2023/03/03 21:19:52;;;;;;;42.73;23.70;;;2.00;99.40;;;;;;4901231;29;20521;-73
2023/03/03 21:22:20;;;;;;;52.73;25.93;;;2.10;99.30;;;;;;4902527;29;20511;-74
2023/03/03 21:24:56;;;;;;;53.67;27.40;;;2.10;99.10;;;;;;4886550;29;20204;-76
2023/03/03 21:27:30;;;;;;;63.53;30.33;;;2.20;99.00;;;;;;4883187;29;20873;-76
2023/03/03 21:30:14;;;;;;;60.60;30.13;;;2.20;98.90;;;;;;4917810;29;20424;-75
2023/03/03 21:32:43;;;;;;;69.20;34.17;;;2.30;98.80;;;;;;4911741;29;20514;-75
2023/03/03 21:35:17;;;;;;;62.37;31.23;;;2.30;98.70;;;;;;4901497;29;20480;-74
2023/03/03 21:37:46;;;;;;;63.13;30.03;;;2.30;98.60;;;;;;4917531;29;20431;-74
2023/03/03 21:40:15;;;;;;;55.57;26.10;;;2.40;98.60;;;;;;4905995;29;20458;-75
2023/03/03 21:42:43;;;;;;;55.53;29.47;;;2.40;98.50;;;;;;4900524;29;20424;-74
2023/03/03 21:45:14;;;;;;;65.37;32.00;;;2.40;98.40;;;;;;4882726;29;20475;-75
2023/03/03 21:47:40;;;;;;;51.80;25.83;;;2.40;98.30;;;;;;4896155;29;20488;-73
2023/03/03 21:50:07;;;;;;;61.93;30.80;;;2.40;98.20;;;;;;4884433;29;20405;-74
2023/03/03 21:52:33;;;;;;;61.47;30.17;;;2.50;98.20;;;;;;4878030;29;20517;-75
2023/03/03 21:54:59;;;;;;;54.07;26.57;;;2.50;98.00;;;;;;4890952;29;20449;-75
2023/03/03 21:57:25;;;;;;;63.60;28.20;;;2.50;98.00;;;;;;4897868;29;20172;-74
2023/03/03 21:59:52;;;;;;;58.67;27.87;;;2.60;98.00;;;;;;4865900;29;20471;-73
2023/03/03 22:02:17;;;;;;;68.93;33.20;;;2.50;97.90;;;;;;4882831;29;20211;-75
2023/03/03 22:04:43;;;;;;;75.50;36.57;;;2.60;98.10;;;;;;4878409;29;20457;-74
2023/03/03 22:07:09;;;;;;;65.87;30.87;;;2.60;97.70;;;;;;4881847;29;20203;-73
2023/03/03 22:09:36;;;;;;;47.10;26.40;;;2.70;97.60;;;;;;4883550;29;20196;-76
2023/03/03 22:12:02;;;;;;;45.30;24.57;;;2.70;97.60;;;;;;4901689;29;20533;-74
2023/03/03 22:14:27;;;;;;;45.53;23.70;;;2.70;97.50;;;;;;4899341;29;20416;-75
2023/03/03 22:16:54;;;;;;;42.97;21.87;;;2.70;97.50;;;;;;4898849;29;20439;-76
2023/03/03 22:19:20;;;;;;;50.23;24.77;;;2.80;97.60;;;;;;4883136;29;20223;-74
2023/03/03 22:21:48;;;;;;;48.10;24.00;;;2.80;97.50;;;;;;4884047;29;20465;-76
2023/03/03 22:24:14;;;;;;;58.70;28.97;;;2.80;97.50;;;;;;4900176;29;20174;-75
2023/03/03 22:26:40;;;;;;;60.57;29.83;;;2.80;97.80;;;;;;4909009;29;20417;-78
2023/03/03 22:29:05;;;;;;;55.40;28.67;;;2.90;97.40;;;;;;4866469;29;20197;-75
2023/03/03 22:31:32;;;;;;;65.83;32.97;;;2.90;97.20;;;;;;4880953;29;20189;-72
2023/03/03 22:33:58;;;;;;;61.00;28.70;;;2.90;97.20;;;;;;4879427;29;20441;-75
2023/03/03 22:36:24;;;;;;;62.77;31.37;;;2.90;97.10;;;;;;4880086;29;20534;-75
2023/03/03 22:38:50;;;;;;;44.17;24.33;;;2.90;97.20;;;;;;4895490;29;20208;-75
2023/03/03 22:41:16;;;;;;;61.20;29.97;;;2.90;97.10;;;;;;4871935;29;20176;-76
2023/03/03 22:43:42;;;;;;;46.67;23.90;;;2.90;97.10;;;;;;4881233;29;20781;-74
2023/03/03 22:46:09;;;;;;;56.00;26.93;;;2.90;97.10;;;;;;4897322;29;20440;-73
2023/03/03 22:48:35;;;;;;;44.93;22.37;;;2.90;97.10;;;;;;4881107;29;20448;-75
2023/03/03 22:51:01;;;;;;;44.13;21.40;;;2.90;97.10;;;;;;4896304;29;20417;-76
2023/03/03 22:53:27;;;;;;;41.20;22.83;;;2.90;97.10;;;;;;4882853;29;20421;-73
2023/03/03 22:55:53;;;;;;;44.87;23.67;;;2.90;97.10;;;;;;4880126;29;20509;-76
2023/03/03 22:58:19;;;;;;;44.47;22.63;;;2.90;97.00;;;;;;4895725;29;20187;-73
2023/03/03 23:00:48;;;;;;;47.40;23.53;;;2.90;97.00;;;;;;4897013;29;20421;-74
2023/03/03 23:03:15;;;;;;;41.53;20.07;;;2.90;97.00;;;;;;4896094;29;20432;-74
2023/03/03 23:05:42;;;;;;;32.00;18.40;;;2.90;97.00;;;;;;4882065;29;20489;-77
2023/03/03 23:08:10;;;;;;;38.90;19.17;;;2.90;96.90;;;;;;4882007;29;20416;-76
2023/03/03 23:10:36;;;;;;;43.60;22.77;;;2.90;96.90;;;;;;4880408;29;20476;-73
2023/03/03 23:13:03;;;;;;;43.10;23.43;;;2.90;96.90;;;;;;4882841;29;20429;-72
2023/03/03 23:15:29;;;;;;;43.70;22.60;;;2.90;96.80;;;;;;4879375;29;20452;-72
2023/03/03 23:17:54;;;;;;;39.57;20.37;;;2.90;97.20;;;;;;4898378;29;20490;-73
2023/03/03 23:20:23;;;;;;;42.87;21.37;;;2.90;96.80;;;;;;4877007;29;20496;-74
2023/03/03 23:22:49;;;;;;;39.43;18.90;;;2.90;96.80;;;;;;4896861;29;20172;-76
2023/03/03 23:25:16;;;;;;;43.77;19.93;;;2.90;96.90;;;;;;4877873;29;20543;-74
2023/03/03 23:27:42;;;;;;;36.67;19.70;;;2.90;96.80;;;;;;4894800;29;20424;-73
2023/03/03 23:30:10;;;;;;;47.87;26.40;;;2.90;96.80;;;;;;4890024;29;20463;-73
2023/03/03 23:32:36;;;;;;;59.60;29.03;;;2.90;96.80;;;;;;4859705;29;20417;-74
2023/03/03 23:35:01;;;;;;;46.47;24.17;;;2.90;96.70;;;;;;4874769;29;20492;-73
2023/03/03 23:37:27;;;;;;;50.23;27.70;;;2.90;96.70;;;;;;4908431;29;20266;-73
2023/03/03 23:39:53;;;;;;;54.53;29.13;;;3.00;96.80;;;;;;4916635;29;20202;-74
2023/03/03 23:42:18;;;;;;;68.23;34.63;;;2.90;96.70;;;;;;4908295;29;20192;-71
2023/03/03 23:44:44;;;;;;;62.10;30.33;;;2.90;96.60;;;;;;4875451;29;20211;-70
2023/03/03 23:47:09;;;;;;;55.37;28.60;;;3.00;96.60;;;;;;4890665;29;20188;-73
2023/03/03 23:49:35;;;;;;;69.53;33.30;;;3.00;96.60;;;;;;4906451;29;20271;-73
2023/03/03 23:52:02;;;;;;;64.30;32.07;;;3.00;96.60;;;;;;4890333;29;20180;-71
2023/03/03 23:54:27;;;;;;;67.97;33.23;;;3.00;96.60;;;;;;4906052;29;20638;-73
2023/03/03 23:56:53;;;;;;;57.50;31.60;;;2.90;96.60;;;;;;4894040;29;20431;-72
2023/03/03 23:59:19;;;;;;;65.87;29.43;;;3.00;96.60;;;;;;4886877;29;20206;-73
